Time;durP1;ratioP1;P1;durP2;ratioP2;P2;SDS_P1;SDS_P2;PMS_P1;PMS_P2;Temp;Humidity;BMP_temperature;BMP_pressure;BME280_temperature;BME280_humidity;BME280_pressure;Samples;Min_cycle;Max_cycle;Signal;HPM_P1;HPM_P2
2022/01/28 00:02:03;;;;;;;16.17;10.83;;;;;;;0.78;100.00;97213.72;5062039;28;20554;-73
2022/01/28 00:04:29;;;;;;;14.13;9.10;;;;;;;0.70;100.00;97209.75;5066142;28;20430;-74
2022/01/28 00:06:55;;;;;;;16.40;9.90;;;;;;;0.70;100.00;97202.00;5069511;28;20465;-73
2022/01/28 00:09:20;;;;;;;14.33;9.17;;;;;;;0.66;100.00;97204.78;5073833;28;20031;-75
2022/01/28 00:11:46;;;;;;;15.43;10.20;;;;;;;0.72;100.00;97206.25;5039983;28;20040;-75
2022/01/28 00:38:47;;;;;;;19.33;11.47;;;;;;;0.53;100.00;97230.41;5052660;28;20567;-74
2022/01/28 00:41:13;;;;;;;17.73;11.03;;;;;;;0.57;100.00;97233.69;5046730;28;20990;-74
2022/01/28 00:43:39;;;;;;;18.50;12.40;;;;;;;0.59;100.00;97232.72;5050103;28;20500;-74
2022/01/28 00:46:06;;;;;;;18.87;11.90;;;;;;;0.58;100.00;97236.22;5052499;28;20512;-74
2022/01/28 00:48:31;;;;;;;18.90;12.07;;;;;;;0.55;100.00;97231.19;5056736;28;20038;-76
2022/01/28 00:50:57;;;;;;;21.27;12.23;;;;;;;0.53;100.00;97227.81;5066036;28;20549;-76
2022/01/28 00:53:23;;;;;;;19.67;12.00;;;;;;;0.57;100.00;97226.78;5042277;28;20117;-76
2022/01/28 00:55:49;;;;;;;20.13;13.67;;;;;;;0.57;100.00;97233.69;5077901;28;20032;-76
2022/01/28 00:58:15;;;;;;;18.80;12.00;;;;;;;0.53;100.00;97225.25;5058578;28;20036;-74
2022/01/28 01:00:41;;;;;;;21.67;13.23;;;;;;;0.52;100.00;97236.50;5064480;28;20044;-73
2022/01/28 01:03:07;;;;;;;19.73;12.23;;;;;;;0.54;100.00;97232.13;5055760;28;20455;-74
2022/01/28 01:05:34;;;;;;;21.43;13.03;;;;;;;0.53;100.00;97239.94;5063323;28;20490;-74
2022/01/28 01:08:04;;;;;;;20.87;12.83;;;;;;;0.53;100.00;97252.88;5044128;28;20458;-76
2022/01/28 01:10:30;;;;;;;20.43;13.17;;;;;;;0.58;100.00;97256.09;5073334;28;20852;-76
2022/01/28 01:12:57;;;;;;;23.67;13.83;;;;;;;0.50;100.00;97253.03;5078181;28;20544;-75
2022/01/28 01:15:27;;;;;;;21.13;12.63;;;;;;;0.52;100.00;97264.97;5078876;28;20461;-74
2022/01/28 01:20:39;;;;;;;22.13;13.53;;;;;;;0.50;100.00;97261.63;5063431;28;20459;-74
2022/01/28 01:23:10;;;;;;;23.17;14.25;;;;;;;0.52;100.00;97267.56;5065025;28;20457;-77
2022/01/28 01:25:46;;;;;;;26.60;14.50;;;;;;;0.54;100.00;97260.59;5077267;28;20032;-77
2022/01/28 01:28:13;;;;;;;24.60;14.07;;;;;;;0.51;100.00;97255.56;5061935;28;20430;-76
2022/01/28 01:30:42;;;;;;;24.17;14.57;;;;;;;0.49;100.00;97257.34;5067401;28;20454;-76
2022/01/28 01:33:09;;;;;;;22.83;14.77;;;;;;;0.51;100.00;97265.91;5071373;28;20532;-76
2022/01/28 01:35:36;;;;;;;22.00;13.50;;;;;;;0.60;100.00;97269.78;5058314;28;20455;-76
2022/01/28 01:38:03;;;;;;;24.20;14.57;;;;;;;0.65;100.00;97270.44;5061787;28;20462;-76
2022/01/28 01:40:43;;;;;;;23.53;13.10;;;;;;;0.63;100.00;97280.84;5070753;28;20839;-76
2022/01/28 01:53:48;;;;;;;21.70;14.60;;;;;;;0.60;100.00;97278.38;5079602;28;20748;-77
2022/01/28 01:56:13;;;;;;;24.03;13.60;;;;;;;0.63;100.00;97280.84;5049209;28;20999;-76
2022/01/28 01:58:40;;;;;;;25.90;14.67;;;;;;;0.62;100.00;97284.34;5050242;28;20490;-76
2022/01/28 02:01:06;;;;;;;23.23;13.83;;;;;;;0.65;100.00;97284.19;5056617;28;20136;-76
2022/01/28 02:03:32;;;;;;;28.73;14.67;;;;;;;0.60;100.00;97291.34;5076603;28;20943;-76
2022/01/28 02:06:00;;;;;;;22.23;13.27;;;;;;;0.61;100.00;97292.19;5057223;28;20025;-76
2022/01/28 02:08:27;;;;;;;24.93;14.43;;;;;;;0.59;100.00;97299.19;5049862;28;20036;-76
2022/01/28 02:10:57;;;;;;;23.27;12.83;;;;;;;0.59;100.00;97294.84;5059026;28;20446;-76
2022/01/28 02:13:27;;;;;;;21.70;14.40;;;;;;;0.59;100.00;97297.44;5051870;28;20501;-76
2022/01/28 02:15:54;;;;;;;24.40;14.23;;;;;;;0.59;100.00;97304.34;5072658;28;20538;-76
2022/01/28 02:18:21;;;;;;;21.17;13.47;;;;;;;0.61;100.00;97297.38;5060883;28;20465;-76
2022/01/28 02:20:52;;;;;;;21.23;13.07;;;;;;;0.63;100.00;97301.53;5064689;28;20530;-76
2022/01/28 02:23:21;;;;;;;22.33;13.90;;;;;;;0.64;100.00;97305.84;5064329;28;21087;-76
2022/01/28 02:25:47;;;;;;;21.77;13.17;;;;;;;0.59;100.00;97307.78;5069396;28;20478;-76
2022/01/28 02:28:16;;;;;;;21.97;13.33;;;;;;;0.60;100.00;97304.28;5060011;28;20459;-77
2022/01/28 02:30:43;;;;;;;21.07;12.53;;;;;;;0.59;100.00;97307.78;5059154;28;21011;-76
2022/01/28 02:33:18;;;;;;;19.77;12.30;;;;;;;0.58;100.00;97303.53;5052828;28;20549;-76
2022/01/28 02:35:45;;;;;;;19.43;12.50;;;;;;;0.59;100.00;97289.66;5065505;28;20438;-77
2022/01/28 02:38:12;;;;;;;19.83;12.43;;;;;;;0.50;100.00;97299.59;5065332;28;20500;-76
2022/01/28 02:40:42;;;;;;;19.47;12.57;;;;;;;0.42;100.00;97282.69;5066408;28;20469;-76
2022/01/28 02:45:51;;;;;;;18.50;12.87;;;;;;;0.44;100.00;97292.97;5077945;28;20975;-76
2022/01/28 02:48:21;;;;;;;20.57;12.60;;;;;;;0.48;100.00;97307.44;5069704;28;20774;-76
2022/01/28 02:53:28;;;;;;;21.23;12.03;;;;;;;0.52;100.00;97301.22;5066174;28;20447;-77
2022/01/28 02:56:00;;;;;;;16.70;10.80;;;;;;;0.51;100.00;97291.78;5056987;28;20465;-76
2022/01/28 02:58:27;;;;;;;18.53;10.90;;;;;;;0.53;100.00;97289.94;5073548;28;20443;-76
2022/01/28 03:00:55;;;;;;;20.63;12.10;;;;;;;0.50;100.00;97294.44;5068390;28;20442;-75
2022/01/28 03:03:24;;;;;;;19.67;11.33;;;;;;;0.48;100.00;97289.34;5043024;28;20483;-76
2022/01/28 03:05:51;;;;;;;18.83;11.17;;;;;;;0.46;100.00;97299.75;5051024;28;20439;-77
2022/01/28 03:08:18;;;;;;;17.97;11.70;;;;;;;0.52;100.00;97315.91;5058207;28;20477;-76
2022/01/28 03:10:57;;;;;;;17.10;11.33;;;;;;;0.48;100.00;97317.81;5059847;28;20441;-75
2022/01/28 03:16:20;;;;;;;17.77;11.17;;;;;;;0.50;100.00;97315.13;5023655;28;20476;-74
2022/01/28 03:18:56;;;;;;;17.73;11.47;;;;;;;0.52;100.00;97327.09;5069038;28;20500;-75
2022/01/28 03:21:37;;;;;;;24.33;13.03;;;;;;;0.46;100.00;97329.97;5052971;28;21077;-74
2022/01/28 03:24:06;;;;;;;22.33;12.97;;;;;;;0.50;100.00;97326.31;5059682;28;21026;-74
2022/01/28 03:26:31;;;;;;;25.50;12.80;;;;;;;0.49;100.00;97335.00;5056126;28;20867;-74
2022/01/28 03:28:58;;;;;;;21.43;13.10;;;;;;;0.48;100.00;97322.97;5042075;28;20530;-74
2022/01/28 03:31:24;;;;;;;22.00;13.37;;;;;;;0.41;100.00;97331.94;5068409;28;20028;-74
2022/01/28 03:33:50;;;;;;;23.63;13.83;;;;;;;0.42;100.00;97337.03;5069758;28;21025;-74
2022/01/28 03:36:16;;;;;;;18.50;11.93;;;;;;;0.43;100.00;97330.94;5069599;28;20036;-74
2022/01/28 03:38:42;;;;;;;21.63;11.90;;;;;;;0.45;100.00;97339.47;5079542;28;20037;-75
2022/01/28 03:41:16;;;;;;;20.67;12.87;;;;;;;0.46;100.00;97342.91;5070465;28;20050;-75
2022/01/28 03:43:47;;;;;;;20.70;12.37;;;;;;;0.51;100.00;97340.13;5063279;28;20522;-75
2022/01/28 03:46:13;;;;;;;20.50;12.77;;;;;;;0.47;100.00;97355.78;5047379;28;20485;-74
2022/01/28 03:48:39;;;;;;;22.50;12.23;;;;;;;0.46;100.00;97354.09;5046461;28;20498;-75
2022/01/28 03:51:05;;;;;;;20.53;13.50;;;;;;;0.48;100.00;97354.03;5029571;28;20467;-73
2022/01/28 03:53:31;;;;;;;22.43;12.87;;;;;;;0.53;100.00;97359.81;5054813;28;20466;-74
2022/01/28 03:55:58;;;;;;;25.60;13.23;;;;;;;0.51;100.00;97368.59;5078163;28;20430;-73
2022/01/28 03:58:24;;;;;;;19.43;11.90;;;;;;;0.49;100.00;97373.00;5044265;28;20064;-73
2022/01/28 04:00:51;;;;;;;20.17;13.23;;;;;;;0.47;100.00;97378.25;5061946;28;20447;-74
2022/01/28 04:11:34;;;;;;;23.40;12.50;;;;;;;0.47;100.00;97383.41;5072435;28;20462;-73
2022/01/28 04:19:20;;;;;;;18.97;10.60;;;;;;;0.37;100.00;97388.16;5058249;28;20832;-73
2022/01/28 04:21:46;;;;;;;20.37;10.27;;;;;;;0.42;100.00;97381.03;5048710;28;20467;-73
2022/01/28 04:24:12;;;;;;;19.43;10.23;;;;;;;0.32;100.00;97390.09;5047641;28;20793;-74
2022/01/28 04:26:38;;;;;;;18.23;11.40;;;;;;;0.32;100.00;97387.50;5061347;28;20032;-74
2022/01/28 04:29:04;;;;;;;18.23;10.93;;;;;;;0.42;100.00;97400.88;5068396;28;20027;-73
2022/01/28 04:31:30;;;;;;;22.63;12.33;;;;;;;0.37;100.00;97387.31;5051886;28;20381;-74
2022/01/28 04:33:56;;;;;;;17.17;11.23;;;;;;;0.41;100.00;97391.47;5077236;28;20438;-73
2022/01/28 04:36:25;;;;;;;16.73;11.70;;;;;;;0.43;100.00;97397.38;5068868;28;20040;-73
2022/01/28 04:39:02;;;;;;;18.27;10.80;;;;;;;0.49;100.00;97402.28;5047723;28;20514;-74
2022/01/28 04:41:39;;;;;;;23.57;10.70;;;;;;;0.49;100.00;97412.66;5053947;28;20482;-73
2022/01/28 04:44:16;;;;;;;20.43;12.43;;;;;;;0.49;100.00;97419.56;5070295;28;20463;-74
2022/01/28 04:46:52;;;;;;;15.37;10.07;;;;;;;0.46;100.00;97423.97;5049034;28;20450;-73
2022/01/28 04:49:26;;;;;;;24.10;13.90;;;;;;;0.43;100.00;97425.84;5064635;28;20441;-73
2022/01/28 04:52:30;;;;;;;21.27;11.90;;;;;;;0.41;100.00;97423.34;5058195;28;21019;-73
2022/01/28 05:05:25;;;;;;;16.90;10.63;;;;;;;0.38;100.00;97451.94;5058090;28;20036;-75
2022/01/28 05:28:35;;;;;;;15.70;10.00;;;;;;;0.22;100.00;97445.75;5054218;28;20631;-73
2022/01/28 05:31:00;;;;;;;18.37;10.00;;;;;;;0.26;100.00;97446.44;5050290;28;20839;-73
2022/01/28 05:33:26;;;;;;;16.40;10.80;;;;;;;0.26;100.00;97451.63;5074676;28;20457;-73
2022/01/28 05:35:52;;;;;;;18.33;9.53;;;;;;;0.32;100.00;97441.84;5065545;28;20119;-74
2022/01/28 05:38:17;;;;;;;19.30;11.40;;;;;;;0.35;100.00;97456.41;5054152;28;20062;-74
2022/01/28 05:40:43;;;;;;;19.37;11.17;;;;;;;0.32;100.00;97461.72;5048050;28;20477;-74
2022/01/28 05:43:09;;;;;;;21.70;11.97;;;;;;;0.35;100.00;97461.59;5023455;28;20033;-73
2022/01/28 05:45:35;;;;;;;18.87;10.57;;;;;;;0.38;100.00;97472.63;5066493;28;20029;-73
2022/01/28 05:48:00;;;;;;;20.23;11.50;;;;;;;0.33;100.00;97469.41;5048823;28;20062;-74
2022/01/28 05:50:26;;;;;;;18.83;11.23;;;;;;;0.37;100.00;97476.16;5075501;28;20538;-75
2022/01/28 05:52:52;;;;;;;21.63;11.97;;;;;;;0.40;100.00;97470.84;5066397;28;20035;-75
2022/01/28 05:55:19;;;;;;;23.33;12.70;;;;;;;0.44;100.00;97476.72;5058516;28;20035;-75
2022/01/28 05:57:46;;;;;;;19.53;11.03;;;;;;;0.45;100.00;97492.16;5055412;28;20040;-74
2022/01/28 06:00:13;;;;;;;22.53;13.83;;;;;;;0.45;100.00;97499.09;5072103;28;20443;-75
2022/01/28 06:02:45;;;;;;;24.67;12.83;;;;;;;0.42;100.00;97504.41;5079213;28;20497;-75
2022/01/28 06:05:12;;;;;;;20.43;12.37;;;;;;;0.41;100.00;97506.16;5073904;28;20533;-76
2022/01/28 06:07:44;;;;;;;23.27;14.30;;;;;;;0.40;100.00;97503.63;5047034;28;20562;-75
2022/01/28 06:10:14;;;;;;;20.97;11.47;;;;;;;0.43;100.00;97504.31;5059274;28;20557;-75
2022/01/28 06:12:46;;;;;;;17.03;11.00;;;;;;;0.41;100.00;97518.25;5081737;28;20528;-74
2022/01/28 06:15:12;;;;;;;21.63;11.23;;;;;;;0.44;100.00;97524.13;5060512;28;20501;-74
2022/01/28 06:17:39;;;;;;;22.07;11.40;;;;;;;0.46;100.00;97524.06;5047258;28;20455;-75
2022/01/28 06:20:08;;;;;;;21.20;12.47;;;;;;;0.45;100.00;97530.16;5080400;28;20837;-75
2022/01/28 06:22:40;;;;;;;17.37;10.97;;;;;;;0.42;100.00;97540.63;5057090;28;20934;-74
2022/01/28 06:25:08;;;;;;;20.75;11.00;;;;;;;0.41;100.00;97538.97;5079664;28;20498;-74
2022/01/28 06:27:34;;;;;;;28.53;11.20;;;;;;;0.43;100.00;97547.47;5062520;28;20449;-75
2022/01/28 06:30:00;;;;;;;20.33;10.03;;;;;;;0.42;100.00;97550.97;5050657;28;20486;-75
2022/01/28 06:32:25;;;;;;;18.73;10.47;;;;;;;0.46;100.00;97549.94;5043105;28;20557;-74
2022/01/28 06:34:51;;;;;;;60.83;32.87;;;;;;;0.41;100.00;97554.47;5080518;28;20028;-75
2022/01/28 06:37:17;;;;;;;42.50;25.23;;;;;;;0.47;100.00;97559.41;5064441;28;20035;-75
2022/01/28 06:39:43;;;;;;;40.50;27.53;;;;;;;0.46;100.00;97561.13;5073946;28;20029;-75
2022/01/28 06:42:09;;;;;;;28.93;18.67;;;;;;;0.47;100.00;97554.22;5064005;28;20118;-74
2022/01/28 06:44:35;;;;;;;21.57;13.80;;;;;;;0.42;100.00;97556.16;5053643;28;20071;-75
2022/01/28 06:47:00;;;;;;;21.13;14.23;;;;;;;0.42;100.00;97558.75;5049227;28;20481;-75
2022/01/28 06:49:26;;;;;;;26.43;11.20;;;;;;;0.47;100.00;97564.59;5047600;28;20470;-75
2022/01/28 06:51:52;;;;;;;17.93;10.73;;;;;;;0.51;100.00;97568.72;5070768;28;20025;-75
2022/01/28 06:54:18;;;;;;;18.57;10.67;;;;;;;0.52;100.00;97567.81;5040915;28;20167;-75
2022/01/28 06:56:44;;;;;;;19.50;11.50;;;;;;;0.43;100.00;97578.53;5066236;28;20028;-75
2022/01/28 06:59:11;;;;;;;23.03;12.87;;;;;;;0.49;100.00;97580.88;5046421;28;20471;-75
2022/01/28 07:01:37;;;;;;;23.80;12.53;;;;;;;0.51;100.00;97563.53;5055738;28;20979;-75
2022/01/28 07:04:04;;;;;;;22.20;12.50;;;;;;;0.42;100.00;97569.94;5061540;28;20474;-75
2022/01/28 07:06:29;;;;;;;19.23;11.23;;;;;;;0.42;100.00;97575.09;5058930;28;20907;-75
2022/01/28 07:08:55;;;;;;;20.73;10.20;;;;;;;0.43;100.00;97570.78;5070700;28;20539;-75
2022/01/28 07:11:21;;;;;;;19.50;11.37;;;;;;;0.45;100.00;97571.56;5055043;28;20039;-75
2022/01/28 07:13:46;;;;;;;19.63;10.70;;;;;;;0.45;100.00;97579.31;5051116;28;20028;-75
2022/01/28 07:16:12;;;;;;;17.17;10.47;;;;;;;0.44;100.00;97577.66;5062604;28;20024;-75
2022/01/28 07:18:38;;;;;;;20.87;11.37;;;;;;;0.45;100.00;97589.69;5062861;28;20021;-75
2022/01/28 07:21:03;;;;;;;19.17;10.80;;;;;;;0.41;100.00;97590.72;5042905;28;20021;-75
2022/01/28 07:23:30;;;;;;;19.10;10.60;;;;;;;0.41;100.00;97588.97;5070010;28;20054;-75
2022/01/28 07:25:56;;;;;;;21.17;11.27;;;;;;;0.38;100.00;97580.50;5047050;28;20451;-75
2022/01/28 07:28:23;;;;;;;22.90;11.87;;;;;;;0.37;100.00;97594.31;5058158;28;20032;-75
2022/01/28 07:30:51;;;;;;;20.57;11.20;;;;;;;0.39;100.00;97593.34;5034361;28;20029;-74
2022/01/28 07:33:16;;;;;;;19.47;10.63;;;;;;;0.36;100.00;97595.22;5061730;28;20943;-75
2022/01/28 07:35:42;;;;;;;19.03;11.23;;;;;;;0.34;100.00;97594.47;5071159;28;20613;-75
2022/01/28 07:38:07;;;;;;;21.97;11.67;;;;;;;0.33;100.00;97595.34;5051947;28;20486;-74
2022/01/28 07:40:33;;;;;;;20.33;11.80;;;;;;;0.31;100.00;97594.59;5069642;28;20572;-75
2022/01/28 07:42:59;;;;;;;21.87;11.57;;;;;;;0.35;100.00;97596.13;5079618;28;20032;-75
2022/01/28 07:45:25;;;;;;;24.87;12.37;;;;;;;0.35;100.00;97598.72;5054959;28;20028;-75
2022/01/28 07:47:51;;;;;;;21.83;12.13;;;;;;;0.33;100.00;97600.53;5034261;28;20032;-75
2022/01/28 07:50:17;;;;;;;24.47;11.70;;;;;;;0.37;100.00;97609.84;5058030;28;20082;-76
2022/01/28 07:52:43;;;;;;;23.13;11.67;;;;;;;0.42;100.00;97615.69;5060905;28;20462;-75
2022/01/28 07:55:11;;;;;;;26.40;13.93;;;;;;;0.45;100.00;97623.31;5043808;28;20044;-75
2022/01/28 07:57:38;;;;;;;21.03;12.03;;;;;;;0.43;100.00;97630.28;5071921;28;20474;-75
2022/01/28 08:00:05;;;;;;;20.03;11.77;;;;;;;0.39;100.00;97633.91;5057834;28;20462;-74
2022/01/28 08:02:38;;;;;;;21.43;12.30;;;;;;;0.41;100.00;97647.66;5062973;28;20036;-75
2022/01/28 08:05:05;;;;;;;23.27;13.60;;;;;;;0.48;100.00;97646.50;5039659;28;20451;-75
2022/01/28 08:07:30;;;;;;;21.33;11.53;;;;;;;0.41;100.00;97638.13;5061585;28;20508;-75
2022/01/28 08:09:56;;;;;;;22.80;13.27;;;;;;;0.46;100.00;97631.00;5078350;28;20533;-75
2022/01/28 08:12:22;;;;;;;24.17;13.13;;;;;;;0.38;100.00;97629.66;5062313;28;20430;-75
2022/01/28 08:14:47;;;;;;;27.67;14.40;;;;;;;0.40;100.00;97641.63;5073502;28;20485;-74
2022/01/28 08:17:13;;;;;;;28.43;14.83;;;;;;;0.45;100.00;97633.66;5073962;28;20020;-75
2022/01/28 08:19:39;;;;;;;31.57;15.00;;;;;;;0.41;100.00;97635.53;5054019;28;20494;-75
2022/01/28 08:22:06;;;;;;;24.77;13.50;;;;;;;0.48;100.00;97646.50;5059233;28;20652;-74
2022/01/28 08:24:32;;;;;;;24.27;13.50;;;;;;;0.52;100.00;97637.69;5055350;28;20976;-75
2022/01/28 08:26:58;;;;;;;26.53;13.83;;;;;;;0.58;100.00;97639.19;5078175;28;20465;-75
2022/01/28 08:29:24;;;;;;;25.70;12.47;;;;;;;0.57;100.00;97642.66;5059414;28;20060;-75
2022/01/28 08:31:50;;;;;;;25.07;13.63;;;;;;;0.67;100.00;97660.38;5053831;28;20032;-75
2022/01/28 08:34:16;;;;;;;23.77;13.37;;;;;;;0.69;100.00;97653.38;5065164;28;20037;-74
2022/01/28 08:36:42;;;;;;;23.03;13.87;;;;;;;0.75;100.00;97654.03;5073827;28;20467;-74
2022/01/28 08:39:10;;;;;;;27.53;13.53;;;;;;;0.74;100.00;97642.84;5040253;28;20582;-75
2022/01/28 08:41:39;;;;;;;22.83;12.20;;;;;;;0.81;100.00;97646.00;5068212;28;20272;-74
2022/01/28 08:44:05;;;;;;;21.33;12.13;;;;;;;0.78;100.00;97640.97;5050573;28;20467;-74
2022/01/28 08:46:32;;;;;;;17.97;10.03;;;;;;;0.76;100.00;97642.75;5062874;28;20430;-75
2022/01/28 08:48:57;;;;;;;21.50;10.50;;;;;;;0.72;100.00;97651.56;5050624;28;20450;-75
2022/01/28 08:51:23;;;;;;;19.07;10.23;;;;;;;0.68;100.00;97668.97;5034480;28;20483;-75
2022/01/28 08:53:49;;;;;;;20.47;10.83;;;;;;;0.80;100.00;97665.84;5066527;28;20074;-74
2022/01/28 08:56:15;;;;;;;22.10;11.67;;;;;;;0.92;100.00;97659.34;5063783;28;20035;-75
2022/01/28 08:58:40;;;;;;;24.10;12.73;;;;;;;1.40;100.00;97666.72;5043338;28;20094;-75
2022/01/28 09:01:06;;;;;;;20.17;11.93;;;;;;;1.12;100.00;97661.91;5063701;28;20032;-75
2022/01/28 09:03:33;;;;;;;17.60;9.30;;;;;;;1.16;100.00;97655.69;5053568;28;20032;-74
2022/01/28 09:05:59;;;;;;;20.53;9.50;;;;;;;1.22;100.00;97661.53;5050118;28;20052;-75
2022/01/28 09:08:25;;;;;;;15.57;8.43;;;;;;;1.15;100.00;97666.97;5056671;28;20447;-75
2022/01/28 09:11:00;;;;;;;20.60;9.50;;;;;;;1.12;100.00;97664.50;5059620;28;20975;-75
2022/01/28 09:13:30;;;;;;;16.97;8.90;;;;;;;1.25;100.00;97671.75;5072516;28;20044;-74
2022/01/28 09:15:57;;;;;;;16.67;9.07;;;;;;;1.24;100.00;97683.88;5061197;28;20493;-75
2022/01/28 09:18:24;;;;;;;19.00;10.20;;;;;;;1.24;100.00;97688.19;5057807;28;20055;-74
2022/01/28 09:20:50;;;;;;;21.00;10.33;;;;;;;1.36;100.00;97687.69;5041879;28;20051;-74
2022/01/28 09:23:16;;;;;;;27.63;13.27;;;;;;;1.31;100.00;97682.72;5076671;28;20033;-74
2022/01/28 09:25:43;;;;;;;19.40;11.63;;;;;;;1.30;100.00;97685.34;5079991;28;20029;-75
2022/01/28 09:28:09;;;;;;;16.40;10.50;;;;;;;1.35;100.00;97684.25;5061673;28;20041;-75
2022/01/28 09:30:35;;;;;;;18.50;10.17;;;;;;;1.36;100.00;97695.44;5039553;28;20025;-75
2022/01/28 09:33:02;;;;;;;15.73;8.63;;;;;;;1.42;100.00;97692.59;5044356;28;20031;-75
2022/01/28 09:35:28;;;;;;;18.57;8.47;;;;;;;1.49;100.00;97699.19;5073099;28;20032;-75
2022/01/28 09:37:54;;;;;;;16.20;9.23;;;;;;;1.41;100.00;97698.69;5062800;28;20108;-75
2022/01/28 09:40:21;;;;;;;13.90;8.33;;;;;;;1.47;100.00;97703.59;5078539;28;20036;-75
2022/01/28 09:42:48;;;;;;;14.00;7.20;;;;;;;1.45;100.00;97715.78;5078856;28;20032;-75
2022/01/28 09:45:20;;;;;;;19.40;10.10;;;;;;;1.34;100.00;97723.19;5074850;28;20113;-75
2022/01/28 09:47:46;;;;;;;14.57;7.50;;;;;;;1.36;100.00;97723.97;5053558;28;20580;-74
2022/01/28 09:50:15;;;;;;;15.07;8.13;;;;;;;1.30;100.00;97721.63;5037122;28;20021;-75
2022/01/28 09:52:41;;;;;;;13.73;7.73;;;;;;;1.28;100.00;97718.28;5074506;28;20040;-75
2022/01/28 09:55:07;;;;;;;17.90;9.17;;;;;;;1.29;100.00;97725.13;5040884;28;20033;-75
2022/01/28 09:57:33;;;;;;;16.27;9.07;;;;;;;1.37;100.00;97723.88;5081141;28;20101;-75
2022/01/28 09:59:59;;;;;;;18.23;10.23;;;;;;;1.39;100.00;97739.38;5074271;28;20112;-75
2022/01/28 10:02:51;;;;;;;23.10;10.10;;;;;;;1.32;100.00;97727.59;5056912;28;20032;-76
2022/01/28 10:05:19;;;;;;;17.87;10.53;;;;;;;1.46;100.00;97727.00;5054301;28;20028;-75
2022/01/28 10:08:10;;;;;;;20.60;10.63;;;;;;;1.31;100.00;97726.75;5077588;28;20119;-75
2022/01/28 10:11:00;;;;;;;16.70;9.93;;;;;;;1.36;100.00;97729.97;5083268;28;20058;-74
2022/01/28 10:16:15;;;;;;;17.80;10.13;;;;;;;1.54;100.00;97720.59;5067745;28;20025;-75
2022/01/28 10:18:57;;;;;;;28.23;16.13;;;;;;;1.79;100.00;97716.91;5074796;28;20062;-75
2022/01/28 10:21:30;;;;;;;16.23;9.93;;;;;;;1.60;100.00;97720.28;5048453;28;20082;-75
2022/01/28 10:23:59;;;;;;;21.80;10.13;;;;;;;1.71;100.00;97721.56;5061999;28;20548;-75
2022/01/28 10:26:33;;;;;;;17.67;9.37;;;;;;;1.69;100.00;97716.47;5065649;28;20028;-75
2022/01/28 10:29:00;;;;;;;18.40;9.93;;;;;;;1.74;100.00;97711.06;5051607;28;20021;-75
2022/01/28 10:31:40;;;;;;;18.70;9.27;;;;;;;2.01;100.00;97722.81;5067270;28;20071;-74
2022/01/28 10:34:11;;;;;;;17.37;8.43;;;;;;;2.15;100.00;97723.91;5070483;28;20220;-75
2022/01/28 10:36:37;;;;;;;18.10;8.13;;;;;;;2.24;100.00;97716.53;5071725;28;20059;-75
2022/01/28 10:39:04;;;;;;;21.53;9.30;;;;;;;2.31;100.00;97717.09;5056148;28;20036;-75
2022/01/28 10:41:29;;;;;;;13.97;8.40;;;;;;;2.13;100.00;97719.63;5063634;28;20120;-75
2022/01/28 10:43:57;;;;;;;22.63;8.43;;;;;;;2.27;100.00;97724.19;5058754;28;20044;-75
2022/01/28 10:46:31;;;;;;;18.63;7.47;;;;;;;2.34;100.00;97722.16;5048582;28;20123;-75
2022/01/28 10:49:01;;;;;;;17.27;7.90;;;;;;;2.35;100.00;97723.84;5067359;28;20037;-75
2022/01/28 10:51:47;;;;;;;16.63;7.37;;;;;;;2.31;100.00;97723.16;5055526;28;20123;-75
2022/01/28 10:54:15;;;;;;;14.23;7.30;;;;;;;2.36;100.00;97717.75;5061603;28;20039;-75
2022/01/28 10:56:57;;;;;;;18.60;7.17;;;;;;;2.46;100.00;97716.38;5062257;28;20034;-75
2022/01/28 10:59:25;;;;;;;14.63;7.47;;;;;;;2.55;100.00;97702.97;5036581;28;20115;-75
2022/01/28 11:01:52;;;;;;;14.67;7.87;;;;;;;2.55;100.00;97696.94;5053906;28;20050;-75
2022/01/28 11:04:18;;;;;;;16.83;7.13;;;;;;;2.97;100.00;97701.78;5070677;28;20381;-75
2022/01/28 11:06:46;;;;;;;16.30;7.50;;;;;;;3.09;100.00;97694.31;5060627;28;20427;-76
2022/01/28 11:09:14;;;;;;;16.60;7.60;;;;;;;3.12;100.00;97694.13;5079781;28;20020;-75
2022/01/28 11:11:40;;;;;;;13.27;7.00;;;;;;;3.56;100.00;97694.47;5070897;28;20025;-75
2022/01/28 11:14:07;;;;;;;13.37;7.47;;;;;;;3.70;100.00;97689.38;5061032;28;20077;-75
2022/01/28 11:16:33;;;;;;;13.23;6.70;;;;;;;3.59;100.00;97689.09;5060372;28;20032;-75
2022/01/28 11:19:00;;;;;;;17.23;6.80;;;;;;;3.00;100.00;97690.41;5050329;28;20028;-76
2022/01/28 11:22:08;;;;;;;12.37;6.20;;;;;;;2.69;100.00;97702.31;5057722;28;20490;-75
2022/01/28 11:24:42;;;;;;;13.93;5.77;;;;;;;2.70;100.00;97705.72;5033240;28;20055;-75
2022/01/28 11:27:13;;;;;;;14.17;7.07;;;;;;;2.80;100.00;97710.41;5058721;28;20024;-76
2022/01/28 11:29:39;;;;;;;14.43;6.20;;;;;;;3.43;100.00;97704.66;5072803;28;20026;-75
2022/01/28 11:32:23;;;;;;;13.83;6.60;;;;;;;3.43;100.00;97696.84;5058160;28;20051;-75
2022/01/28 11:34:57;;;;;;;;;;;;;;;3.41;100.00;97698.69;5053999;28;20036;-75
2022/01/28 11:37:31;;;;;;;14.20;5.90;;;;;;;3.79;100.00;97703.66;5061011;28;20611;-75
2022/01/28 11:40:12;;;;;;;12.87;5.63;;;;;;;3.52;100.00;97704.19;5061702;28;20055;-75
2022/01/28 11:42:38;;;;;;;16.77;6.93;;;;;;;3.68;100.00;97700.78;5057175;28;20032;-75
2022/01/28 11:45:06;;;;;;;16.70;7.57;;;;;;;3.45;100.00;97709.75;5057708;28;20059;-76
2022/01/28 11:47:33;;;;;;;11.10;5.77;;;;;;;3.48;100.00;97701.81;5035427;28;20029;-75
2022/01/28 11:50:05;;;;;;;17.50;6.80;;;;;;;3.40;100.00;97701.38;5044994;28;20561;-75
2022/01/28 11:52:50;;;;;;;11.10;5.27;;;;;;;3.31;100.00;97690.50;5070420;28;20649;-75
2022/01/28 11:55:23;;;;;;;13.33;5.97;;;;;;;3.13;100.00;97695.81;5059794;28;20032;-75
2022/01/28 11:58:04;;;;;;;15.73;5.47;;;;;;;2.83;100.00;97699.03;5060074;28;20036;-75
2022/01/28 12:00:41;;;;;;;15.10;6.90;;;;;;;2.67;100.00;97696.31;5067892;28;20032;-75
2022/01/28 12:03:29;;;;;;;16.47;6.77;;;;;;;2.75;100.00;97698.53;5049820;28;20110;-75
2022/01/28 12:06:05;;;;;;;13.03;6.07;;;;;;;2.80;100.00;97691.38;5074344;28;20121;-74
2022/01/28 12:08:32;;;;;;;13.03;5.33;;;;;;;2.91;100.00;97691.69;5057712;28;20029;-76
2022/01/28 12:11:01;;;;;;;23.17;8.73;;;;;;;3.09;100.00;97689.09;5061695;28;20024;-74
2022/01/28 12:14:01;;;;;;;13.20;5.30;;;;;;;3.07;100.00;97689.16;5065092;28;20024;-74
2022/01/28 12:16:35;;;;;;;15.03;7.20;;;;;;;2.86;100.00;97678.09;5051149;28;20184;-74
2022/01/28 12:19:02;;;;;;;;;;;;;;;2.88;100.00;97691.00;5069737;28;20032;-74
2022/01/28 12:21:34;;;;;;;12.47;3.50;;;;;;;2.95;100.00;97700.16;5079614;28;19991;-74
2022/01/28 12:24:18;;;;;;;9.07;3.90;;;;;;;2.86;100.00;97708.44;5071645;28;20033;-75
2022/01/28 12:27:05;;;;;;;11.00;3.60;;;;;;;2.91;100.00;97701.25;5056510;28;20082;-75
2022/01/28 12:29:37;;;;;;;10.37;3.87;;;;;;;2.99;100.00;97697.34;5065404;28;20025;-75
2022/01/28 12:32:04;;;;;;;13.57;3.57;;;;;;;3.16;100.00;97691.31;5035644;28;20059;-75
2022/01/28 12:34:30;;;;;;;10.57;4.13;;;;;;;3.06;100.00;97687.50;5051769;28;20656;-75
2022/01/28 12:36:57;;;;;;;10.93;3.53;;;;;;;3.05;100.00;97684.06;5070987;28;20059;-75
2022/01/28 12:39:50;;;;;;;11.40;3.33;;;;;;;3.39;100.00;97666.75;5056028;28;20406;-75
2022/01/28 12:42:26;;;;;;;12.17;4.53;;;;;;;3.96;100.00;97672.38;5037353;28;20033;-75
2022/01/28 12:44:57;;;;;;;10.67;3.77;;;;;;;3.49;100.00;97672.31;5079769;28;20528;-75
2022/01/28 12:47:24;;;;;;;6.80;4.17;;;;;;;3.58;100.00;97668.34;5062185;28;20033;-75
2022/01/28 12:50:03;;;;;;;12.80;3.53;;;;;;;3.61;100.00;97665.59;5040131;28;20019;-75
2022/01/28 12:52:33;;;;;;;7.33;3.00;;;;;;;3.41;100.00;97670.06;5055293;28;20032;-75
2022/01/28 12:54:59;;;;;;;12.67;4.17;;;;;;;3.51;100.00;97660.88;5067954;28;20033;-77
2022/01/28 12:57:24;;;;;;;12.03;3.40;;;;;;;3.52;100.00;97669.50;5064571;28;20032;-77
2022/01/28 12:59:50;;;;;;;9.50;3.47;;;;;;;3.29;100.00;97661.16;5050991;28;20402;-76
2022/01/28 13:02:18;;;;;;;9.23;4.03;;;;;;;3.21;100.00;97665.91;5069402;28;20044;-76